| Date | Time | Temp. (oF) | Dew Point (oF) | Rel. Hum. (%) | Press. (in.) | Wind Dir. | Wind Speed (mph) | Hourly Rainfall (in.) |
|
|---|---|---|---|---|---|---|---|---|---|
| 1 | 10/08 | 00:00 | 58 | 45 | 62 | 29.93 | W | 0 | 0.00 |
| 2 | 10/07 | 23:00 | 59 | 46 | 63 | 29.91 | W | 2 | 0.00 |
| 3 | 10/07 | 22:00 | 61 | 46 | 59 | 29.87 | WNW | 3 | 0.00 |
| 4 | 10/07 | 21:00 | 61 | 48 | 63 | 29.84 | W | 4 | 0.00 |
| 5 | 10/07 | 20:00 | 62 | 49 | 63 | 29.82 | NW | 3 | 0.00 |
| 6 | 10/07 | 19:00 | 64 | 48 | 58 | 29.79 | SSW | 3 | 0.00 |
| 7 | 10/07 | 18:00 | 68 | 49 | 51 | 29.76 | NNW | 3 | 0.00 |
| 8 | 10/07 | 17:00 | 70 | 49 | 48 | 29.74 | NW | 6 | 0.00 |
| 9 | 10/07 | 16:00 | 71 | 51 | 50 | 29.74 | NW | 4 | 0.00 |
| 10 | 10/07 | 15:00 | 71 | 50 | 49 | 29.73 | NW | 6 | 0.00 |
| 11 | 10/07 | 14:00 | 72 | 53 | 52 | 29.73 | NW | 6 | 0.00 |
| 12 | 10/07 | 13:00 | 71 | 53 | 55 | 29.74 | W | 5 | 0.00 |
| 13 | 10/07 | 12:00 | 68 | 54 | 62 | 29.76 | NW | 10 | 0.00 |
| 14 | 10/07 | 11:00 | 65 | 52 | 65 | 29.76 | WSW | 7 | 0.00 |
| 15 | 10/07 | 10:00 | 62 | 57 | 86 | 29.77 | S | 7 | 0.00 |
| 16 | 10/07 | 09:00 | 57 | 56 | 98 | 29.76 | SW | 7 | 0.00 |
| 17 | 10/07 | 08:00 | 52 | 51 | 99 | 29.75 | SW | 2 | 0.00 |
| 18 | 10/07 | 07:00 | 52 | 51 | 100 | 29.74 | WSW | 1 | 0.00 |
| 19 | 10/07 | 06:00 | 52 | 51 | 99 | 29.73 | WSW | 2 | 0.00 |
| 20 | 10/07 | 05:00 | 52 | 51 | 99 | 29.73 | W | 6 | 0.00 |
| 21 | 10/07 | 04:00 | 52 | 51 | 98 | 29.73 | W | 2 | 0.00 |
| 22 | 10/07 | 03:00 | 52 | 51 | 99 | 29.74 | WSW | 2 | 0.01 |
| 23 | 10/07 | 02:00 | 52 | 51 | 98 | 29.74 | WNW | 2 | 0.00 |
| 24 | 10/07 | 01:00 | 52 | 51 | 97 | 29.73 | WNW | 5 | 0.00 |